Time;durP1;ratioP1;P1;durP2;ratioP2;P2;SDS_P1;SDS_P2;PMS_P1;PMS_P2;Temp;Humidity;BMP_temperature;BMP_pressure;BME280_temperature;BME280_humidity;BME280_pressure;Samples;Min_cycle;Max_cycle;Signal;HPM_P1;HPM_P2
2023/06/27 00:00:13;;;;;;;3.10;2.00;;;18.90;99.90;;;;;;4975933;28;20034;-77
2023/06/27 00:02:40;;;;;;;7.30;2.65;;;18.90;99.90;;;;;;4975801;28;20041;-76
2023/06/27 00:05:06;;;;;;;3.30;1.98;;;18.90;99.90;;;;;;4975179;28;20038;-77
2023/06/27 00:07:32;;;;;;;5.00;2.22;;;18.80;99.90;;;;;;4979155;28;20053;-77
2023/06/27 00:09:57;;;;;;;8.68;2.28;;;18.80;99.90;;;;;;4979589;28;20574;-77
2023/06/27 00:12:23;;;;;;;8.32;2.38;;;18.80;99.90;;;;;;4978365;28;20038;-77
2023/06/27 00:14:49;;;;;;;7.68;2.53;;;18.70;99.90;;;;;;4979763;28;20129;-77
2023/06/27 00:17:16;;;;;;;7.38;2.33;;;18.70;99.90;;;;;;4978978;28;20113;-77
2023/06/27 00:19:44;;;;;;;4.63;1.98;;;18.70;99.90;;;;;;4977617;28;20038;-77
2023/06/27 00:22:10;;;;;;;6.45;2.53;;;18.70;99.90;;;;;;4979355;28;20030;-77
2023/06/27 00:24:36;;;;;;;3.42;2.03;;;18.70;99.90;;;;;;4978180;28;20046;-77
2023/06/27 00:27:02;;;;;;;4.13;2.10;;;18.60;99.90;;;;;;4979515;28;20035;-77
2023/06/27 00:29:28;;;;;;;9.75;2.50;;;18.60;99.90;;;;;;4978711;28;20395;-77
2023/06/27 00:31:54;;;;;;;5.30;2.20;;;18.60;99.90;;;;;;4979049;28;20088;-77
2023/06/27 00:34:20;;;;;;;5.85;1.98;;;18.60;99.90;;;;;;4979139;28;20030;-77
2023/06/27 00:36:46;;;;;;;10.25;2.38;;;18.60;99.90;;;;;;4979164;28;20031;-77
2023/06/27 00:39:11;;;;;;;4.82;2.28;;;18.60;99.90;;;;;;4978889;28;20038;-77
2023/06/27 00:41:37;;;;;;;5.63;2.10;;;18.70;99.90;;;;;;4979840;28;20693;-78
2023/06/27 00:44:07;;;;;;;5.38;1.75;;;18.70;99.90;;;;;;4978145;28;21029;-78
2023/06/27 00:46:38;;;;;;;5.88;2.25;;;18.70;99.90;;;;;;4977836;28;20081;-77
2023/06/27 00:49:07;;;;;;;5.78;1.95;;;18.60;99.90;;;;;;4979339;28;20038;-77
2023/06/27 00:51:33;;;;;;;7.70;1.85;;;18.60;99.90;;;;;;4978451;28;20050;-77
2023/06/27 00:53:58;;;;;;;6.43;2.45;;;18.60;99.90;;;;;;4979052;28;20031;-76
2023/06/27 00:56:26;;;;;;;4.45;1.90;;;18.60;99.90;;;;;;4979449;28;20097;-77
2023/06/27 00:58:53;;;;;;;7.65;2.10;;;18.50;99.90;;;;;;4979290;28;20042;-77
2023/06/27 01:01:19;;;;;;;10.07;2.42;;;18.50;99.90;;;;;;4979103;28;20153;-77
2023/06/27 01:03:45;;;;;;;8.63;2.40;;;18.50;99.90;;;;;;4976791;28;20030;-77
2023/06/27 01:06:27;;;;;;;6.97;1.90;;;18.50;99.90;;;;;;4977869;28;21474;-78
2023/06/27 01:08:59;;;;;;;4.07;2.15;;;18.40;99.90;;;;;;4979028;28;20088;-77
2023/06/27 01:11:32;;;;;;;3.92;1.70;;;18.40;99.90;;;;;;4978394;28;20529;-77
2023/06/27 01:13:59;;;;;;;5.53;2.15;;;18.30;99.90;;;;;;4979255;28;20034;-77
2023/06/27 01:16:29;;;;;;;5.57;2.00;;;18.30;99.90;;;;;;4976767;28;20129;-77
2023/06/27 01:18:57;;;;;;;7.72;2.92;;;18.20;99.90;;;;;;4978117;28;20076;-77
2023/06/27 01:21:27;;;;;;;6.93;2.65;;;18.20;99.90;;;;;;4978739;28;20038;-77
2023/06/27 01:23:54;;;;;;;3.67;1.88;;;18.10;99.90;;;;;;4977930;28;20042;-77
2023/06/27 01:26:20;;;;;;;7.07;2.20;;;18.10;99.90;;;;;;4977857;28;20027;-77
2023/06/27 01:28:47;;;;;;;5.07;2.00;;;18.10;99.90;;;;;;4978623;28;20198;-77
2023/06/27 01:31:23;;;;;;;6.70;2.08;;;18.10;99.90;;;;;;4977557;28;20045;-77
2023/06/27 01:34:02;;;;;;;5.90;2.05;;;18.00;99.90;;;;;;4974132;28;20035;-77
2023/06/27 01:36:40;;;;;;;5.05;1.88;;;18.00;99.90;;;;;;4976648;28;20038;-77
2023/06/27 01:39:15;;;;;;;11.82;2.53;;;18.00;99.90;;;;;;4978066;28;20490;-77
2023/06/27 01:41:45;;;;;;;4.43;2.30;;;18.00;99.90;;;;;;4978558;28;20057;-77
2023/06/27 01:44:14;;;;;;;5.72;2.30;;;18.00;99.90;;;;;;4977096;28;20784;-76
2023/06/27 01:46:40;;;;;;;5.40;2.10;;;18.00;99.90;;;;;;4976235;28;20058;-77
2023/06/27 01:49:07;;;;;;;4.63;2.20;;;18.00;99.90;;;;;;4977954;28;20034;-78
2023/06/27 01:51:32;;;;;;;6.78;2.03;;;17.90;99.90;;;;;;4977275;28;20042;-77
2023/06/27 01:53:58;;;;;;;6.47;1.90;;;17.90;99.90;;;;;;4976359;28;20035;-77
2023/06/27 01:56:24;;;;;;;7.05;2.35;;;17.90;99.90;;;;;;4976055;28;20084;-77
2023/06/27 01:58:50;;;;;;;11.93;2.35;;;17.90;99.90;;;;;;4976613;28;20026;-77
2023/06/27 02:01:16;;;;;;;8.30;2.47;;;17.90;99.90;;;;;;4977096;28;20022;-77
2023/06/27 02:03:41;;;;;;;5.00;2.53;;;17.90;99.90;;;;;;4977576;28;20029;-77
2023/06/27 02:06:07;;;;;;;4.30;1.85;;;17.80;99.90;;;;;;4976832;28;20058;-77
2023/06/27 02:08:32;;;;;;;5.28;1.88;;;17.80;99.90;;;;;;4976282;28;20443;-77
2023/06/27 02:10:58;;;;;;;7.78;2.20;;;17.80;99.90;;;;;;4977824;28;20640;-77
2023/06/27 02:13:25;;;;;;;6.22;2.30;;;17.80;99.90;;;;;;4976739;28;20041;-77
2023/06/27 02:15:50;;;;;;;7.45;2.20;;;17.80;99.90;;;;;;4977373;28;20031;-77
2023/06/27 02:18:16;;;;;;;5.35;2.17;;;17.80;99.90;;;;;;4977914;28;20030;-77
2023/06/27 02:20:41;;;;;;;3.92;1.70;;;17.80;99.90;;;;;;4977491;28;20049;-77
2023/06/27 02:23:07;;;;;;;4.78;2.15;;;17.80;99.90;;;;;;4976653;28;20543;-78
2023/06/27 02:25:32;;;;;;;8.50;1.90;;;17.80;99.90;;;;;;4976873;28;20046;-78
2023/06/27 02:27:58;;;;;;;7.88;2.40;;;17.70;99.90;;;;;;4978280;28;20030;-77
2023/06/27 02:30:23;;;;;;;7.93;2.20;;;17.70;99.90;;;;;;4976661;28;20026;-77
2023/06/27 02:32:49;;;;;;;7.07;2.38;;;17.70;99.90;;;;;;4976422;28;20133;-78
2023/06/27 02:35:16;;;;;;;7.20;2.00;;;17.80;99.90;;;;;;4976670;28;20031;-77
2023/06/27 02:37:42;;;;;;;9.00;2.60;;;17.80;99.90;;;;;;4976839;28;20025;-76
2023/06/27 02:40:08;;;;;;;5.53;2.10;;;17.70;99.90;;;;;;4976317;28;20048;-77
2023/06/27 02:42:34;;;;;;;5.93;2.05;;;17.70;99.90;;;;;;4976495;28;20525;-78
2023/06/27 02:44:59;;;;;;;8.48;2.10;;;17.70;99.90;;;;;;4976601;28;20014;-77
2023/06/27 02:47:25;;;;;;;8.75;2.20;;;17.80;99.90;;;;;;4976159;28;20021;-77
2023/06/27 02:49:50;;;;;;;6.63;2.10;;;17.70;99.90;;;;;;4975599;28;20027;-77
2023/06/27 02:52:16;;;;;;;4.63;2.30;;;17.70;99.90;;;;;;4975836;28;20096;-77
2023/06/27 02:54:41;;;;;;;9.23;2.38;;;17.70;99.90;;;;;;4976362;28;20446;-77
2023/06/27 02:57:07;;;;;;;6.15;1.77;;;17.70;99.90;;;;;;4974898;28;20030;-77
2023/06/27 02:59:32;;;;;;;9.32;2.35;;;17.60;99.90;;;;;;4975997;28;20033;-76
2023/06/27 03:01:58;;;;;;;6.05;2.35;;;17.70;99.90;;;;;;4975155;28;20030;-77
2023/06/27 03:04:24;;;;;;;7.32;2.17;;;17.70;99.90;;;;;;4976436;28;20049;-77
2023/06/27 03:06:50;;;;;;;5.78;2.00;;;17.60;99.90;;;;;;4974236;28;20045;-77
2023/06/27 03:09:18;;;;;;;5.38;2.00;;;17.60;99.90;;;;;;4975402;28;20026;-77
2023/06/27 03:11:44;;;;;;;6.68;2.42;;;17.60;99.90;;;;;;4975565;28;20043;-77
2023/06/27 03:14:09;;;;;;;8.65;2.17;;;17.60;99.90;;;;;;4975908;28;20026;-78
2023/06/27 03:16:35;;;;;;;4.90;2.05;;;17.60;99.90;;;;;;4976567;28;20034;-77
2023/06/27 03:19:00;;;;;;;4.80;1.80;;;17.60;99.90;;;;;;4975595;28;21569;-77
2023/06/27 03:21:26;;;;;;;6.43;2.10;;;17.60;99.90;;;;;;4975313;28;20077;-77
2023/06/27 03:23:51;;;;;;;6.55;2.00;;;17.60;99.90;;;;;;4975848;28;20449;-77
2023/06/27 03:26:17;;;;;;;4.25;1.95;;;17.60;99.90;;;;;;4976048;28;20098;-77
2023/06/27 03:28:42;;;;;;;10.77;2.47;;;17.60;99.90;;;;;;4976666;28;20038;-77
2023/06/27 03:31:08;;;;;;;10.10;2.40;;;17.60;99.90;;;;;;4975932;28;20023;-78
2023/06/27 03:33:33;;;;;;;7.32;1.90;;;17.50;99.90;;;;;;4975485;28;20042;-77
2023/06/27 03:35:59;;;;;;;6.45;2.00;;;17.50;99.90;;;;;;4974150;28;20082;-77
2023/06/27 03:38:25;;;;;;;6.72;2.30;;;17.50;99.90;;;;;;4975707;28;20126;-77
2023/06/27 03:40:50;;;;;;;5.55;2.22;;;17.50;99.90;;;;;;4976773;28;20027;-77
2023/06/27 03:43:16;;;;;;;10.25;2.28;;;17.50;99.90;;;;;;4980399;28;20402;-77
2023/06/27 03:45:42;;;;;;;6.97;2.25;;;17.50;99.90;;;;;;4978689;28;20096;-78
2023/06/27 03:48:08;;;;;;;5.20;2.10;;;17.50;99.90;;;;;;4978565;28;21533;-77
2023/06/27 03:50:33;;;;;;;7.22;2.00;;;17.50;99.90;;;;;;4978275;28;20415;-77
2023/06/27 03:53:01;;;;;;;8.75;2.53;;;17.40;99.90;;;;;;4979568;28;20076;-77
2023/06/27 03:55:26;;;;;;;6.43;2.00;;;17.40;99.90;;;;;;4978514;28;20036;-77
2023/06/27 03:57:52;;;;;;;4.57;2.35;;;17.40;99.90;;;;;;4976717;28;20034;-77
2023/06/27 04:00:17;;;;;;;4.40;1.85;;;17.40;99.90;;;;;;4978104;28;20052;-77
2023/06/27 04:02:43;;;;;;;11.32;2.63;;;17.40;99.90;;;;;;4979481;28;20023;-77
2023/06/27 04:05:09;;;;;;;6.97;2.00;;;17.40;99.90;;;;;;4977284;28;20419;-77
2023/06/27 04:07:34;;;;;;;8.32;2.38;;;17.40;99.90;;;;;;4978422;28;20042;-77
2023/06/27 04:10:00;;;;;;;4.55;2.10;;;17.30;99.90;;;;;;4976785;28;20046;-77
2023/06/27 04:12:25;;;;;;;8.27;2.20;;;17.40;99.90;;;;;;4977315;28;20532;-77
2023/06/27 04:14:51;;;;;;;7.22;2.40;;;17.40;99.90;;;;;;4978676;28;20029;-77
2023/06/27 04:17:16;;;;;;;7.68;2.15;;;17.40;99.90;;;;;;4977349;28;20030;-77
2023/06/27 04:19:42;;;;;;;8.35;2.20;;;17.40;99.90;;;;;;4979772;28;20023;-77
2023/06/27 04:22:07;;;;;;;7.60;2.15;;;17.40;99.90;;;;;;4978250;28;20447;-77
2023/06/27 04:24:33;;;;;;;4.85;2.10;;;17.40;99.90;;;;;;4979073;28;20395;-77
2023/06/27 04:26:59;;;;;;;5.95;2.45;;;17.40;99.90;;;;;;4978257;28;20152;-77
2023/06/27 04:29:24;;;;;;;6.38;2.20;;;17.40;99.90;;;;;;4978772;28;20026;-74
2023/06/27 04:31:50;;;;;;;8.05;2.92;;;17.40;99.90;;;;;;4976530;28;20443;-74
2023/06/27 04:34:16;;;;;;;10.38;2.30;;;17.40;99.90;;;;;;4978876;28;20030;-74
2023/06/27 04:36:42;;;;;;;6.65;2.20;;;17.40;99.90;;;;;;4976086;28;20030;-78
2023/06/27 04:39:08;;;;;;;10.52;2.33;;;17.40;99.90;;;;;;4979819;28;20206;-77
2023/06/27 04:41:34;;;;;;;6.97;2.38;;;17.40;99.90;;;;;;4980010;28;20081;-77
2023/06/27 04:43:59;;;;;;;5.93;2.25;;;17.30;99.90;;;;;;4976400;28;20030;-77
2023/06/27 04:46:28;;;;;;;7.68;2.30;;;17.30;99.90;;;;;;4975054;28;20030;-78
2023/06/27 04:48:56;;;;;;;14.13;2.63;;;17.30;99.90;;;;;;4976971;28;20044;-77
2023/06/27 04:51:24;;;;;;;7.03;2.60;;;17.30;99.90;;;;;;4976560;28;20046;-78
2023/06/27 04:53:49;;;;;;;7.82;2.45;;;17.30;99.90;;;;;;4974300;28;20439;-77
2023/06/27 04:56:15;;;;;;;6.93;2.10;;;17.30;99.90;;;;;;4974585;28;20058;-77
2023/06/27 04:58:40;;;;;;;5.85;2.33;;;17.30;99.90;;;;;;4976896;28;20022;-77
2023/06/27 05:01:06;;;;;;;5.35;2.20;;;17.20;99.90;;;;;;4974624;28;20026;-76
2023/06/27 05:03:31;;;;;;;5.97;2.45;;;17.30;99.90;;;;;;4973392;28;21517;-77
2023/06/27 05:05:58;;;;;;;5.10;2.00;;;17.30;99.90;;;;;;4972872;28;20443;-76
2023/06/27 05:08:23;;;;;;;6.65;2.20;;;17.30;99.90;;;;;;4974109;28;20109;-77
2023/06/27 05:10:49;;;;;;;6.68;2.38;;;17.30;99.90;;;;;;4977119;28;20034;-77
2023/06/27 05:13:14;;;;;;;6.18;2.35;;;17.20;99.90;;;;;;4970685;28;20038;-77
2023/06/27 05:15:40;;;;;;;6.32;2.22;;;17.30;99.90;;;;;;4968611;28;20054;-77
2023/06/27 05:18:08;;;;;;;4.18;1.90;;;17.30;99.90;;;;;;4964536;28;20136;-77
2023/06/27 05:20:37;;;;;;;5.18;2.13;;;17.30;99.90;;;;;;4969242;28;20036;-77
2023/06/27 05:23:04;;;;;;;4.28;2.10;;;17.40;99.90;;;;;;4968296;28;20057;-77
2023/06/27 05:25:30;;;;;;;7.38;2.65;;;17.40;99.90;;;;;;4969647;28;20082;-76
2023/06/27 05:27:55;;;;;;;9.95;2.47;;;17.30;99.90;;;;;;4969982;28;21435;-77
2023/06/27 05:30:21;;;;;;;7.47;2.50;;;17.30;99.90;;;;;;4970031;28;20070;-77
2023/06/27 05:32:47;;;;;;;8.10;2.42;;;17.40;99.90;;;;;;4966053;28;20054;-77
2023/06/27 05:35:12;;;;;;;7.68;2.20;;;17.40;99.90;;;;;;4969001;28;20129;-77
2023/06/27 05:37:38;;;;;;;4.88;2.15;;;17.40;99.90;;;;;;4967413;28;20068;-77
2023/06/27 05:40:04;;;;;;;6.82;2.30;;;17.40;99.90;;;;;;4965256;28;20031;-77
2023/06/27 05:42:30;;;;;;;11.35;2.67;;;17.30;99.90;;;;;;4964704;28;20034;-76
2023/06/27 05:44:55;;;;;;;5.45;2.45;;;17.40;99.90;;;;;;4967573;28;20038;-77
2023/06/27 05:47:21;;;;;;;4.82;2.25;;;17.40;99.90;;;;;;4967955;28;20117;-77
2023/06/27 05:49:47;;;;;;;7.47;2.13;;;17.40;99.90;;;;;;4968672;28;20094;-77
2023/06/27 05:52:13;;;;;;;6.60;2.15;;;17.40;99.90;;;;;;4967995;28;20141;-77
2023/06/27 05:54:41;;;;;;;8.98;1.95;;;17.40;99.90;;;;;;4969222;28;20566;-77
2023/06/27 05:57:07;;;;;;;7.53;1.92;;;17.40;99.90;;;;;;4967617;28;20038;-76
2023/06/27 05:59:33;;;;;;;6.07;2.05;;;17.50;99.90;;;;;;4969767;28;20693;-77
2023/06/27 06:01:58;;;;;;;5.60;2.10;;;17.50;99.90;;;;;;4967581;28;20042;-77
2023/06/27 06:04:24;;;;;;;5.25;2.10;;;17.50;99.90;;;;;;4970291;28;20033;-76
2023/06/27 06:06:49;;;;;;;6.85;2.30;;;17.50;99.90;;;;;;4969613;28;20507;-77
2023/06/27 06:09:15;;;;;;;9.50;2.10;;;17.60;99.90;;;;;;4970074;28;20491;-77
2023/06/27 06:11:40;;;;;;;9.75;2.05;;;17.60;99.90;;;;;;4976561;28;20044;-78
2023/06/27 06:14:06;;;;;;;5.85;1.95;;;17.60;99.90;;;;;;4977773;28;20025;-78
2023/06/27 06:16:34;;;;;;;4.95;1.90;;;17.60;99.90;;;;;;4976249;28;20030;-78
2023/06/27 06:19:00;;;;;;;9.93;2.08;;;17.70;99.90;;;;;;4977593;28;20043;-78
2023/06/27 06:21:27;;;;;;;6.28;2.50;;;17.70;99.90;;;;;;4977433;28;20030;-78
2023/06/27 06:23:52;;;;;;;6.78;2.22;;;17.70;99.90;;;;;;4978029;28;20038;-78
2023/06/27 06:26:18;;;;;;;5.88;2.38;;;17.80;99.90;;;;;;4976518;28;20026;-78
2023/06/27 06:28:43;;;;;;;5.80;1.95;;;17.70;99.90;;;;;;4977786;28;20117;-78
2023/06/27 06:31:14;;;;;;;8.45;2.30;;;17.70;99.90;;;;;;4978776;28;20174;-79
2023/06/27 06:33:44;;;;;;;6.72;2.30;;;17.70;99.90;;;;;;4974568;28;20244;-77
2023/06/27 06:36:10;;;;;;;8.70;2.53;;;17.80;99.90;;;;;;4969134;28;20031;-77
2023/06/27 06:38:35;;;;;;;4.30;1.95;;;17.80;99.90;;;;;;4965797;28;20049;-78
2023/06/27 06:41:02;;;;;;;10.95;2.53;;;17.90;99.90;;;;;;4975713;28;20030;-78
2023/06/27 06:43:27;;;;;;;4.50;2.30;;;17.80;99.90;;;;;;4976747;28;20022;-78
2023/06/27 06:45:53;;;;;;;6.28;2.42;;;17.80;99.90;;;;;;4969897;28;20640;-79
2023/06/27 06:48:19;;;;;;;8.88;2.20;;;17.80;99.90;;;;;;4972212;28;20058;-78
2023/06/27 06:50:45;;;;;;;9.82;2.33;;;17.80;99.90;;;;;;4972753;28;20057;-78
2023/06/27 06:53:11;;;;;;;5.80;2.17;;;17.80;99.90;;;;;;4952889;28;20491;-78
2023/06/27 06:55:37;;;;;;;7.55;2.20;;;17.80;99.90;;;;;;4967778;28;20035;-78
2023/06/27 06:58:04;;;;;;;5.10;2.28;;;17.80;99.90;;;;;;4970842;28;20767;-78
2023/06/27 07:00:30;;;;;;;4.22;1.98;;;17.80;99.90;;;;;;4971988;28;20080;-78
2023/06/27 07:02:55;;;;;;;5.97;2.25;;;17.80;99.90;;;;;;4972692;28;20038;-78
2023/06/27 07:05:21;;;;;;;7.93;2.45;;;17.80;99.90;;;;;;4969740;28;20068;-78
2023/06/27 07:07:49;;;;;;;5.53;2.10;;;17.80;99.90;;;;;;4969024;28;20117;-78
2023/06/27 07:10:14;;;;;;;8.35;2.17;;;17.80;99.90;;;;;;4970938;28;20098;-79
2023/06/27 07:12:43;;;;;;;3.55;1.77;;;17.80;99.90;;;;;;4971796;28;20046;-78
2023/06/27 07:15:09;;;;;;;10.05;2.13;;;17.80;99.90;;;;;;4974141;28;20022;-78
2023/06/27 07:17:34;;;;;;;6.72;2.35;;;17.90;99.90;;;;;;4974855;28;20113;-79
2023/06/27 07:20:01;;;;;;;7.40;2.47;;;18.00;99.90;;;;;;4975718;28;20041;-79
2023/06/27 07:22:26;;;;;;;6.07;2.00;;;18.20;99.90;;;;;;4977987;28;20022;-78
2023/06/27 07:24:52;;;;;;;5.55;2.10;;;18.30;99.90;;;;;;4977378;28;20037;-77
2023/06/27 07:27:18;;;;;;;5.70;2.40;;;18.40;99.90;;;;;;4972980;28;21350;-78
2023/06/27 07:29:44;;;;;;;5.75;1.92;;;18.60;99.90;;;;;;4975525;28;20039;-79
2023/06/27 07:32:11;;;;;;;4.63;1.80;;;18.70;99.90;;;;;;4973322;28;20045;-78
2023/06/27 07:34:37;;;;;;;5.57;2.17;;;18.80;99.90;;;;;;4976014;28;20038;-77
2023/06/27 07:37:03;;;;;;;4.47;2.03;;;18.90;99.90;;;;;;4975261;28;20043;-77
2023/06/27 07:39:29;;;;;;;5.65;2.10;;;18.80;99.90;;;;;;4976899;28;20096;-78
2023/06/27 07:41:54;;;;;;;5.47;2.00;;;18.80;99.90;;;;;;4974369;28;20034;-79
2023/06/27 07:44:20;;;;;;;6.32;1.90;;;18.90;99.90;;;;;;4975548;28;20120;-77
2023/06/27 07:46:45;;;;;;;4.53;2.00;;;19.00;99.90;;;;;;4975364;28;20579;-77
2023/06/27 07:49:11;;;;;;;4.53;1.90;;;19.10;99.90;;;;;;4977070;28;20038;-78
2023/06/27 07:51:36;;;;;;;5.68;2.20;;;19.20;99.90;;;;;;4976387;28;20124;-78
2023/06/27 07:54:02;;;;;;;3.85;1.98;;;19.30;99.90;;;;;;4975050;28;20022;-78
2023/06/27 07:56:28;;;;;;;5.22;2.20;;;19.40;99.90;;;;;;4977037;28;20026;-78
2023/06/27 07:58:54;;;;;;;5.13;2.45;;;19.60;99.90;;;;;;4977121;28;20037;-78
2023/06/27 08:01:20;;;;;;;5.38;2.28;;;19.70;99.90;;;;;;4976473;28;20030;-78
2023/06/27 08:03:45;;;;;;;4.95;2.20;;;19.80;99.90;;;;;;4973615;28;20105;-78
2023/06/27 08:06:11;;;;;;;3.85;1.80;;;19.80;99.90;;;;;;4973983;28;20064;-77
2023/06/27 08:08:36;;;;;;;4.22;2.03;;;19.90;99.90;;;;;;4974035;28;20077;-78
2023/06/27 08:11:03;;;;;;;6.32;2.38;;;19.90;99.90;;;;;;4974499;28;20035;-77
2023/06/27 08:13:31;;;;;;;5.25;1.83;;;20.00;99.90;;;;;;4973663;28;20099;-77
2023/06/27 08:15:56;;;;;;;5.10;2.08;;;20.00;99.90;;;;;;4973949;28;20116;-78
2023/06/27 08:18:22;;;;;;;3.95;1.88;;;20.20;99.90;;;;;;4972606;28;20129;-78
2023/06/27 08:20:47;;;;;;;6.43;2.42;;;20.20;99.90;;;;;;4975373;28;20033;-78
2023/06/27 08:23:13;;;;;;;6.72;2.30;;;20.30;99.90;;;;;;4974347;28;20037;-78
2023/06/27 08:25:38;;;;;;;6.40;2.00;;;20.40;99.90;;;;;;4974662;28;20360;-78
2023/06/27 08:28:04;;;;;;;12.88;2.13;;;20.50;99.90;;;;;;4977701;28;20040;-78
2023/06/27 08:30:31;;;;;;;8.32;1.83;;;20.50;99.90;;;;;;4979698;28;20026;-78
2023/06/27 08:32:56;;;;;;;6.32;2.30;;;20.50;99.90;;;;;;4978146;28;20104;-78
2023/06/27 08:35:22;;;;;;;5.32;2.25;;;20.60;99.90;;;;;;4976599;28;20035;-77
2023/06/27 08:37:48;;;;;;;7.47;2.53;;;20.60;99.90;;;;;;4979439;28;20030;-78
2023/06/27 08:40:23;;;;;;;6.97;2.15;;;20.70;99.90;;;;;;4979504;28;20033;-78
2023/06/27 08:42:49;;;;;;;5.75;2.15;;;20.70;99.90;;;;;;4979204;28;20070;-77
2023/06/27 08:45:14;;;;;;;5.85;1.80;;;20.60;99.90;;;;;;4977913;28;20027;-77
2023/06/27 08:47:43;;;;;;;4.63;2.05;;;20.60;99.90;;;;;;4979915;28;20041;-78
2023/06/27 08:50:13;;;;;;;8.85;2.38;;;20.60;99.90;;;;;;4978772;28;20109;-78
2023/06/27 08:52:55;;;;;;;5.72;2.05;;;20.50;99.90;;;;;;4979972;28;20049;-77
2023/06/27 08:55:32;;;;;;;5.55;2.03;;;20.60;99.90;;;;;;4977709;28;20879;-78
2023/06/27 08:58:02;;;;;;;5.25;2.58;;;20.50;99.90;;;;;;4978928;28;20042;-78
2023/06/27 09:00:30;;;;;;;6.43;2.42;;;20.50;99.90;;;;;;4980757;28;20638;-78
2023/06/27 09:02:55;;;;;;;4.18;2.00;;;20.50;99.90;;;;;;4981451;28;20149;-78
2023/06/27 09:05:22;;;;;;;5.63;1.98;;;20.60;99.90;;;;;;4978139;28;20508;-78
2023/06/27 09:07:50;;;;;;;4.90;2.05;;;20.70;99.90;;;;;;4979160;28;20033;-77
2023/06/27 09:10:17;;;;;;;6.70;2.30;;;20.80;99.90;;;;;;4979793;28;20031;-78
2023/06/27 09:12:44;;;;;;;5.28;1.80;;;20.70;99.90;;;;;;4979126;28;20054;-77
2023/06/27 09:15:10;;;;;;;6.88;2.10;;;20.80;99.90;;;;;;4977274;28;20030;-78
2023/06/27 09:17:37;;;;;;;5.32;2.20;;;20.90;99.90;;;;;;4979224;28;20030;-78
2023/06/27 09:20:05;;;;;;;4.97;2.30;;;21.00;99.90;;;;;;4979614;28;20038;-78
2023/06/27 09:22:31;;;;;;;10.35;2.53;;;21.00;99.90;;;;;;4962633;28;20037;-78
2023/06/27 09:25:09;;;;;;;5.88;2.00;;;21.00;99.90;;;;;;4976685;28;20512;-78
2023/06/27 09:27:37;;;;;;;4.07;1.90;;;21.20;99.90;;;;;;4978245;28;20033;-78
2023/06/27 09:30:03;;;;;;;9.63;2.60;;;21.30;99.90;;;;;;4979941;28;20030;-78
2023/06/27 09:32:29;;;;;;;9.27;3.00;;;21.50;99.90;;;;;;4978094;28;20590;-78
2023/06/27 09:34:55;;;;;;;6.22;2.25;;;21.70;99.90;;;;;;4978471;28;20038;-78
2023/06/27 09:37:27;;;;;;;6.68;2.22;;;21.90;99.90;;;;;;4980144;28;20034;-78
2023/06/27 09:39:54;;;;;;;7.68;2.10;;;22.00;99.90;;;;;;4978371;28;20107;-78
2023/06/27 09:42:19;;;;;;;5.68;2.75;;;22.00;99.90;;;;;;4979738;28;20026;-78
2023/06/27 09:44:45;;;;;;;11.13;2.63;;;22.30;99.90;;;;;;4979721;28;21325;-78
2023/06/27 09:47:11;;;;;;;8.23;2.35;;;22.60;99.90;;;;;;4979413;28;20057;-78
2023/06/27 09:49:43;;;;;;;3.75;1.90;;;22.80;99.90;;;;;;4979416;28;20030;-78
2023/06/27 09:52:12;;;;;;;7.63;2.20;;;23.10;99.90;;;;;;4979231;28;21465;-78
2023/06/27 09:54:46;;;;;;;5.20;2.28;;;23.30;99.90;;;;;;4979227;28;20056;-77
2023/06/27 09:57:12;;;;;;;6.07;1.88;;;23.40;99.90;;;;;;4975680;28;20144;-73
2023/06/27 09:59:38;;;;;;;5.13;2.00;;;23.80;99.90;;;;;;4968894;28;20045;-74
2023/06/27 10:02:04;;;;;;;5.90;2.33;;;23.90;99.90;;;;;;4973693;28;20026;-73
2023/06/27 10:04:29;;;;;;;7.10;2.25;;;24.00;99.90;;;;;;4974792;28;20050;-72
2023/06/27 10:06:55;;;;;;;7.35;1.80;;;23.80;99.90;;;;;;4973675;28;20057;-73
2023/06/27 10:09:21;;;;;;;3.58;2.00;;;23.70;99.90;;;;;;4973254;28;20113;-74
2023/06/27 10:11:47;;;;;;;9.90;2.38;;;23.80;99.90;;;;;;4975090;28;20074;-73
2023/06/27 10:14:14;;;;;;;3.70;1.90;;;23.80;99.90;;;;;;4975734;28;20117;-74
2023/06/27 10:16:39;;;;;;;4.07;2.15;;;24.10;99.90;;;;;;4975999;28;20038;-73
2023/06/27 10:19:05;;;;;;;6.00;2.00;;;24.20;99.90;;;;;;4977555;28;20030;-74
2023/06/27 10:21:32;;;;;;;3.80;2.00;;;24.70;99.90;;;;;;4974949;28;20022;-74
2023/06/27 10:24:01;;;;;;;3.88;1.95;;;24.90;99.90;;;;;;4975574;28;20156;-74
2023/06/27 10:26:28;;;;;;;6.50;2.10;;;25.10;99.90;;;;;;4974175;28;20503;-74
2023/06/27 10:28:54;;;;;;;8.45;2.15;;;25.00;99.90;;;;;;4970981;28;20041;-72
2023/06/27 10:31:45;;;;;;;7.82;2.20;;;25.10;98.40;;;;;;4973470;28;20519;-74
2023/06/27 10:34:21;;;;;;;5.60;2.40;;;25.40;98.50;;;;;;4974804;28;20040;-73
2023/06/27 10:36:57;;;;;;;9.38;2.33;;;25.20;99.90;;;;;;4958248;28;20041;-75
2023/06/27 10:39:31;;;;;;;5.10;2.38;;;25.30;99.90;;;;;;4974750;28;20039;-73
2023/06/27 10:42:00;;;;;;;8.40;2.30;;;25.40;99.90;;;;;;4956624;28;20057;-74
2023/06/27 10:44:26;;;;;;;5.93;2.25;;;25.50;98.80;;;;;;4972056;28;20038;-73
2023/06/27 10:47:16;;;;;;;3.97;1.80;;;25.20;99.00;;;;;;4973724;28;20032;-73
2023/06/27 10:49:49;;;;;;;5.47;1.90;;;25.10;98.70;;;;;;4975846;28;20196;-73
2023/06/27 10:52:22;;;;;;;9.07;2.30;;;25.00;98.00;;;;;;4973830;28;20164;-73
2023/06/27 10:55:13;;;;;;;6.05;2.25;;;24.50;98.60;;;;;;4973707;28;20050;-74
2023/06/27 10:57:39;;;;;;;7.85;2.22;;;24.20;98.30;;;;;;4973604;28;20073;-73
2023/06/27 11:00:25;;;;;;;7.60;2.92;;;23.90;98.80;;;;;;4975183;28;20030;-79
2023/06/27 11:02:54;;;;;;;10.18;2.45;;;23.80;98.90;;;;;;4972958;28;20157;-75
2023/06/27 11:05:40;;;;;;;7.72;1.90;;;23.60;99.90;;;;;;4973251;28;20026;-73
2023/06/27 11:08:09;;;;;;;8.23;2.65;;;23.70;99.90;;;;;;4974803;28;20030;-74
2023/06/27 11:10:37;;;;;;;4.43;2.10;;;23.90;99.90;;;;;;4973946;28;20058;-73
2023/06/27 11:13:16;;;;;;;7.68;2.40;;;24.20;99.90;;;;;;4971863;28;20459;-73
2023/06/27 11:15:45;;;;;;;8.43;2.47;;;24.50;99.90;;;;;;4973743;28;20030;-74
2023/06/27 11:18:18;;;;;;;5.68;2.13;;;24.60;99.90;;;;;;4973921;28;20594;-73
2023/06/27 11:20:44;;;;;;;8.30;2.72;;;24.70;99.90;;;;;;4973894;28;20121;-74
2023/06/27 11:23:11;;;;;;;7.65;2.50;;;24.80;99.90;;;;;;4976117;28;20030;-73
2023/06/27 11:25:42;;;;;;;4.78;2.60;;;25.10;99.90;;;;;;4975036;28;20109;-73
2023/06/27 11:28:19;;;;;;;6.53;2.22;;;25.20;98.10;;;;;;4974552;28;20038;-74
2023/06/27 11:30:45;;;;;;;7.47;2.53;;;25.20;98.00;;;;;;4975339;28;20065;-73
2023/06/27 11:33:14;;;;;;;6.13;2.08;;;25.10;97.20;;;;;;4972073;28;20042;-74
2023/06/27 11:35:43;;;;;;;9.02;2.70;;;24.80;97.50;;;;;;4974905;28;20042;-73
2023/06/27 11:38:09;;;;;;;8.05;2.50;;;24.80;97.80;;;;;;4974640;28;20026;-73
2023/06/27 11:40:35;;;;;;;5.53;2.15;;;24.80;98.30;;;;;;4972542;28;21403;-74
2023/06/27 11:43:06;;;;;;;6.72;2.55;;;24.80;98.30;;;;;;4973822;28;20042;-73
2023/06/27 11:45:33;;;;;;;4.85;2.25;;;24.60;97.60;;;;;;4974449;28;20113;-74
2023/06/27 11:47:59;;;;;;;7.18;2.17;;;24.50;96.80;;;;;;4973364;28;20057;-73
2023/06/27 11:50:26;;;;;;;5.78;2.55;;;24.20;96.80;;;;;;4974829;28;20030;-73
2023/06/27 11:52:52;;;;;;;5.53;2.28;;;24.10;98.90;;;;;;4974821;28;20088;-74
2023/06/27 11:55:17;;;;;;;10.02;2.20;;;24.00;99.20;;;;;;4974039;28;20023;-73
2023/06/27 11:57:47;;;;;;;5.47;2.00;;;24.10;99.20;;;;;;4973252;28;20675;-73
2023/06/27 12:00:17;;;;;;;4.28;1.80;;;24.20;99.90;;;;;;4974215;28;20031;-73
2023/06/27 12:02:55;;;;;;;3.75;1.98;;;24.30;99.50;;;;;;4977361;28;20042;-73
2023/06/27 12:05:22;;;;;;;6.05;1.98;;;24.40;99.90;;;;;;4978160;28;20026;-74
2023/06/27 12:08:20;;;;;;;5.32;2.20;;;24.50;99.90;;;;;;4977252;28;20034;-73
2023/06/27 12:10:52;;;;;;;9.80;2.95;;;24.60;98.70;;;;;;4976875;28;20051;-73
2023/06/27 12:13:17;;;;;;;6.78;2.47;;;24.60;98.90;;;;;;4978114;28;20065;-73
2023/06/27 12:15:47;;;;;;;6.57;2.08;;;24.40;99.80;;;;;;4976446;28;20756;-73
2023/06/27 12:18:27;;;;;;;6.90;2.17;;;24.50;99.90;;;;;;4978315;28;20034;-73
2023/06/27 12:20:53;;;;;;;4.20;2.13;;;24.40;99.90;;;;;;4978821;28;20034;-73
2023/06/27 12:23:19;;;;;;;8.48;2.25;;;24.30;99.90;;;;;;4977716;28;20026;-73
2023/06/27 12:25:46;;;;;;;4.53;2.50;;;24.40;99.90;;;;;;4977525;28;20026;-73
2023/06/27 12:28:12;;;;;;;4.97;2.08;;;24.30;99.60;;;;;;4977620;28;20174;-75
2023/06/27 12:30:38;;;;;;;5.65;2.50;;;24.10;99.90;;;;;;4978252;28;20035;-72
2023/06/27 12:33:05;;;;;;;6.50;1.95;;;23.80;99.90;;;;;;4977874;28;20042;-73
2023/06/27 12:35:32;;;;;;;5.75;2.47;;;23.50;99.90;;;;;;4976761;28;20034;-73
2023/06/27 12:37:58;;;;;;;6.72;2.28;;;23.50;99.90;;;;;;4977694;28;20161;-73
2023/06/27 12:40:25;;;;;;;6.57;2.33;;;23.50;99.90;;;;;;4978739;28;20110;-72
2023/06/27 12:42:51;;;;;;;4.05;2.50;;;23.70;99.90;;;;;;4976950;28;20133;-73
2023/06/27 12:45:17;;;;;;;5.68;2.25;;;23.80;99.90;;;;;;4976987;28;20077;-73